Portola Valley, California
Current Conditions -  °F | °C
As of 12:47 PM on Tuesday 21 Oct 2014 (Local Time) from KPAO Reporting Station
Few Clouds Few Clouds  
Wind Chill: 21°   Ceiling: Unl
Heat Index: 21°   Visibility: 30mi
Dew Point:   Wind: 10mph
Humidity: 43%   Direction: 350°N
Pressure: 30.08"   Gusts: NA
Location:  37.38°N, 122.24°W
Report Text: KPAO 211947Z 35009KT 30SM FEW020 21/08 A3008
Loading
Personal Weather Stations






























Interactive Weather Map
Tropical Storm Tracking
New forecast layout! Learn more

10-Day Weather Forecast

Advertisements
Track Severe Weather on mobile